sensor_id;sensor_type;location;lat;lon;timestamp;pressure;altitude;pressure_sealevel;temperature;humidity
42169;BME280;27838;43.858;25.974;2023-04-27T00:00:58;100754.28;;;13.07;58.08
42169;BME280;27838;43.858;25.974;2023-04-27T00:03:25;100737.06;;;12.85;57.85
42169;BME280;27838;43.858;25.974;2023-04-27T00:05:52;100756.16;;;12.97;57.70
42169;BME280;27838;43.858;25.974;2023-04-27T00:08:18;100748.34;;;12.89;57.68
42169;BME280;27838;43.858;25.974;2023-04-27T00:10:45;100746.66;;;12.85;57.15
42169;BME280;27838;43.858;25.974;2023-04-27T00:13:11;100746.63;;;12.88;56.99
42169;BME280;27838;43.858;25.974;2023-04-27T00:15:38;100750.16;;;12.82;56.92
42169;BME280;27838;43.858;25.974;2023-04-27T00:18:05;100753.59;;;12.88;57.12
42169;BME280;27838;43.858;25.974;2023-04-27T00:20:31;100751.88;;;12.87;56.66
42169;BME280;27838;43.858;25.974;2023-04-27T00:22:58;100757.97;;;12.85;56.08
42169;BME280;27838;43.858;25.974;2023-04-27T00:25:24;100761.50;;;12.81;55.59
42169;BME280;27838;43.858;25.974;2023-04-27T00:27:51;100745.91;;;12.72;55.50
42169;BME280;27838;43.858;25.974;2023-04-27T00:30:17;100767.56;;;12.87;56.07
42169;BME280;27838;43.858;25.974;2023-04-27T00:32:44;100763.31;;;12.75;55.21
42169;BME280;27838;43.858;25.974;2023-04-27T00:35:11;100757.25;;;12.68;54.88
42169;BME280;27838;43.858;25.974;2023-04-27T00:37:37;100760.59;;;12.85;55.25
42169;BME280;27838;43.858;25.974;2023-04-27T00:40:05;100764.91;;;12.91;54.40
42169;BME280;27838;43.858;25.974;2023-04-27T00:42:32;100765.78;;;12.90;54.17
42169;BME280;27838;43.858;25.974;2023-04-27T00:44:59;100762.25;;;12.97;54.64
42169;BME280;27838;43.858;25.974;2023-04-27T00:47:26;100761.38;;;12.95;54.33
42169;BME280;27838;43.858;25.974;2023-04-27T00:49:53;100737.94;;;12.86;53.75
42169;BME280;27838;43.858;25.974;2023-04-27T00:52:21;100763.03;;;13.06;54.24
42169;BME280;27838;43.858;25.974;2023-04-27T00:54:50;100765.69;;;12.99;53.74
42169;BME280;27838;43.858;25.974;2023-04-27T00:57:17;100763.16;;;12.95;54.12
42169;BME280;27838;43.858;25.974;2023-04-27T00:59:43;100758.81;;;12.89;54.23
42169;BME280;27838;43.858;25.974;2023-04-27T01:02:10;100755.38;;;12.84;54.05
42169;BME280;27838;43.858;25.974;2023-04-27T01:04:37;100767.47;;;12.97;54.41
42169;BME280;27838;43.858;25.974;2023-04-27T01:07:04;100758.81;;;12.89;54.34
42169;BME280;27838;43.858;25.974;2023-04-27T01:09:30;100771.06;;;12.84;53.37
42169;BME280;27838;43.858;25.974;2023-04-27T01:11:57;100773.66;;;12.85;54.08
42169;BME280;27838;43.858;25.974;2023-04-27T01:14:23;100771.03;;;12.90;54.16
42169;BME280;27838;43.858;25.974;2023-04-27T01:16:51;100776.25;;;12.93;53.51
42169;BME280;27838;43.858;25.974;2023-04-27T01:19:17;100764.88;;;12.94;53.75
42169;BME280;27838;43.858;25.974;2023-04-27T01:21:44;100776.19;;;12.96;53.57
42169;BME280;27838;43.858;25.974;2023-04-27T01:24:10;100779.69;;;12.98;52.60
42169;BME280;27838;43.858;25.974;2023-04-27T01:26:37;100779.66;;;13.00;53.11
42169;BME280;27838;43.858;25.974;2023-04-27T01:29:03;100784.94;;;12.95;52.74
42169;BME280;27838;43.858;25.974;2023-04-27T01:31:30;100802.41;;;12.93;52.58
42169;BME280;27838;43.858;25.974;2023-04-27T01:33:56;100797.97;;;13.00;52.75
42169;BME280;27838;43.858;25.974;2023-04-27T01:36:23;100793.63;;;12.97;53.01
42169;BME280;27838;43.858;25.974;2023-04-27T01:38:52;100804.94;;;13.02;53.10
42169;BME280;27838;43.858;25.974;2023-04-27T01:41:18;100804.09;;;12.97;52.67
42169;BME280;27838;43.858;25.974;2023-04-27T01:43:45;100804.97;;;12.98;52.41
42169;BME280;27838;43.858;25.974;2023-04-27T01:46:13;100815.41;;;12.99;52.30
42169;BME280;27838;43.858;25.974;2023-04-27T01:48:40;100818.00;;;13.06;52.40
42169;BME280;27838;43.858;25.974;2023-04-27T01:51:07;100811.03;;;13.03;52.06
42169;BME280;27838;43.858;25.974;2023-04-27T01:53:33;100814.47;;;13.10;52.01
42169;BME280;27838;43.858;25.974;2023-04-27T01:56:00;100821.38;;;13.14;51.83
42169;BME280;27838;43.858;25.974;2023-04-27T01:58:27;100806.72;;;12.97;51.31
42169;BME280;27838;43.858;25.974;2023-04-27T02:00:54;100818.84;;;13.06;51.52
42169;BME280;27838;43.858;25.974;2023-04-27T02:03:20;100823.22;;;13.07;51.63
42169;BME280;27838;43.858;25.974;2023-04-27T02:05:47;100822.31;;;13.10;51.45
42169;BME280;27838;43.858;25.974;2023-04-27T02:08:14;100830.16;;;13.10;51.78
42169;BME280;27838;43.858;25.974;2023-04-27T02:10:40;100811.91;;;13.02;51.36
42169;BME280;27838;43.858;25.974;2023-04-27T02:13:07;100829.28;;;13.11;51.57
42169;BME280;27838;43.858;25.974;2023-04-27T02:15:34;100827.47;;;13.17;51.72
42169;BME280;27838;43.858;25.974;2023-04-27T02:18:02;100839.66;;;13.20;51.03
42169;BME280;27838;43.858;25.974;2023-04-27T02:20:30;100825.72;;;13.19;51.07
42169;BME280;27838;43.858;25.974;2023-04-27T02:22:56;100837.88;;;13.23;51.25
42169;BME280;27838;43.858;25.974;2023-04-27T02:25:23;100836.13;;;13.24;51.76
42169;BME280;27838;43.858;25.974;2023-04-27T02:27:50;100835.34;;;13.16;51.24
42169;BME280;27838;43.858;25.974;2023-04-27T02:30:16;100844.00;;;13.22;51.50
42169;BME280;27838;43.858;25.974;2023-04-27T02:32:43;100851.81;;;13.26;51.42
42169;BME280;27838;43.858;25.974;2023-04-27T02:35:10;100850.06;;;13.26;51.02
42169;BME280;27838;43.858;25.974;2023-04-27T02:37:37;100843.94;;;13.30;51.55
42169;BME280;27838;43.858;25.974;2023-04-27T02:40:04;100848.28;;;13.34;51.66
42169;BME280;27838;43.858;25.974;2023-04-27T02:42:31;100851.78;;;13.30;52.04
42169;BME280;27838;43.858;25.974;2023-04-27T02:44:58;100857.88;;;13.35;51.90
42169;BME280;27838;43.858;25.974;2023-04-27T02:47:24;100858.75;;;13.36;51.61
42169;BME280;27838;43.858;25.974;2023-04-27T02:49:51;100860.50;;;13.38;51.01
42169;BME280;27838;43.858;25.974;2023-04-27T02:52:17;100857.88;;;13.38;50.51
42169;BME280;27838;43.858;25.974;2023-04-27T02:54:44;100862.19;;;13.41;50.79
42169;BME280;27838;43.858;25.974;2023-04-27T02:57:10;100859.59;;;13.39;51.10
42169;BME280;27838;43.858;25.974;2023-04-27T02:59:37;100866.53;;;13.44;50.58
42169;BME280;27838;43.858;25.974;2023-04-27T03:02:04;100870.88;;;13.45;51.41
42169;BME280;27838;43.858;25.974;2023-04-27T03:04:30;100867.44;;;13.41;51.95
42169;BME280;27838;43.858;25.974;2023-04-27T03:06:57;100874.38;;;13.44;51.61
42169;BME280;27838;43.858;25.974;2023-04-27T03:09:23;100884.00;;;13.43;51.35
42169;BME280;27838;43.858;25.974;2023-04-27T03:11:50;100877.91;;;13.38;52.12
42169;BME280;27838;43.858;25.974;2023-04-27T03:14:17;100890.16;;;13.36;51.91
42169;BME280;27838;43.858;25.974;2023-04-27T03:16:43;100891.00;;;13.39;50.99
42169;BME280;27838;43.858;25.974;2023-04-27T03:19:10;100894.53;;;13.37;51.06
42169;BME280;27838;43.858;25.974;2023-04-27T03:21:36;100910.16;;;13.45;50.71
42169;BME280;27838;43.858;25.974;2023-04-27T03:24:03;100914.53;;;13.46;50.91
42169;BME280;27838;43.858;25.974;2023-04-27T03:26:30;100914.53;;;13.46;52.23
42169;BME280;27838;43.858;25.974;2023-04-27T03:28:56;100921.47;;;13.48;52.44
42169;BME280;27838;43.858;25.974;2023-04-27T03:31:23;100926.69;;;13.50;52.65
42169;BME280;27838;43.858;25.974;2023-04-27T03:33:49;100926.69;;;13.51;52.70
42169;BME280;27838;43.858;25.974;2023-04-27T03:36:16;100928.41;;;13.52;52.82
42169;BME280;27838;43.858;25.974;2023-04-27T03:38:42;100933.63;;;13.55;51.48
42169;BME280;27838;43.858;25.974;2023-04-27T03:41:09;100928.44;;;13.51;52.09
42169;BME280;27838;43.858;25.974;2023-04-27T03:43:35;100942.41;;;13.50;52.35
42169;BME280;27838;43.858;25.974;2023-04-27T03:46:02;100950.25;;;13.50;53.09
42169;BME280;27838;43.858;25.974;2023-04-27T03:48:28;100943.34;;;13.46;53.41
42169;BME280;27838;43.858;25.974;2023-04-27T03:50:55;100945.94;;;13.47;53.98
42169;BME280;27838;43.858;25.974;2023-04-27T03:53:22;100953.75;;;13.49;53.95
42169;BME280;27838;43.858;25.974;2023-04-27T03:55:48;100946.72;;;13.54;52.93
42169;BME280;27838;43.858;25.974;2023-04-27T03:58:15;100944.09;;;13.57;52.38
42169;BME280;27838;43.858;25.974;2023-04-27T04:00:42;100934.53;;;13.53;51.97
42169;BME280;27838;43.858;25.974;2023-04-27T04:03:08;100946.72;;;13.57;52.33
42169;BME280;27838;43.858;25.974;2023-04-27T04:05:35;100950.19;;;13.57;51.37
42169;BME280;27838;43.858;25.974;2023-04-27T04:08:01;100954.53;;;13.65;51.33
42169;BME280;27838;43.858;25.974;2023-04-27T04:10:28;100958.88;;;13.64;52.15
42169;BME280;27838;43.858;25.974;2023-04-27T04:12:55;100958.88;;;13.61;52.63
42169;BME280;27838;43.858;25.974;2023-04-27T04:15:21;100966.69;;;13.69;52.37
42169;BME280;27838;43.858;25.974;2023-04-27T04:17:48;100957.97;;;13.68;52.45
42169;BME280;27838;43.858;25.974;2023-04-27T04:20:15;100953.66;;;13.61;52.74
42169;BME280;27838;43.858;25.974;2023-04-27T04:22:41;100961.47;;;13.66;51.98
42169;BME280;27838;43.858;25.974;2023-04-27T04:25:08;100967.50;;;13.75;51.66
42169;BME280;27838;43.858;25.974;2023-04-27T04:27:35;100967.53;;;13.74;51.79
42169;BME280;27838;43.858;25.974;2023-04-27T04:30:02;100970.97;;;13.77;52.04
42169;BME280;27838;43.858;25.974;2023-04-27T04:32:30;100971.00;;;13.74;51.21
42169;BME280;27838;43.858;25.974;2023-04-27T04:34:58;100978.84;;;13.77;50.90
42169;BME280;27838;43.858;25.974;2023-04-27T04:37:26;100970.16;;;13.72;50.61
42169;BME280;27838;43.858;25.974;2023-04-27T04:39:52;100973.63;;;13.74;50.76
42169;BME280;27838;43.858;25.974;2023-04-27T04:42:19;100968.41;;;13.71;50.54
42169;BME280;27838;43.858;25.974;2023-04-27T04:44:45;100979.72;;;13.76;50.00
42169;BME280;27838;43.858;25.974;2023-04-27T04:47:12;100983.25;;;13.72;49.70
42169;BME280;27838;43.858;25.974;2023-04-27T04:49:39;100977.09;;;13.75;50.37
42169;BME280;27838;43.858;25.974;2023-04-27T04:52:05;100984.94;;;13.76;49.70
42169;BME280;27838;43.858;25.974;2023-04-27T04:54:32;100984.09;;;13.76;49.93
42169;BME280;27838;43.858;25.974;2023-04-27T04:56:58;100973.63;;;13.73;49.97
42169;BME280;27838;43.858;25.974;2023-04-27T04:59:26;100979.72;;;13.76;49.89
42169;BME280;27838;43.858;25.974;2023-04-27T05:01:53;100984.94;;;13.76;49.97
42169;BME280;27838;43.858;25.974;2023-04-27T05:04:20;100969.31;;;13.70;49.99
42169;BME280;27838;43.858;25.974;2023-04-27T05:06:48;100981.50;;;13.71;50.51
42169;BME280;27838;43.858;25.974;2023-04-27T05:09:14;100980.63;;;13.72;50.24
42169;BME280;27838;43.858;25.974;2023-04-27T05:11:41;100989.34;;;13.73;50.55
42169;BME280;27838;43.858;25.974;2023-04-27T05:14:07;100991.09;;;13.75;50.53
42169;BME280;27838;43.858;25.974;2023-04-27T05:16:34;100980.59;;;13.77;50.80
42169;BME280;27838;43.858;25.974;2023-04-27T05:19:00;100984.06;;;13.82;50.63
42169;BME280;27838;43.858;25.974;2023-04-27T05:21:27;100976.22;;;13.77;49.59
42169;BME280;27838;43.858;25.974;2023-04-27T05:23:54;100978.81;;;13.82;50.06
42169;BME280;27838;43.858;25.974;2023-04-27T05:26:20;100976.16;;;13.84;49.01
42169;BME280;27838;43.858;25.974;2023-04-27T05:28:47;100983.13;;;13.88;49.44
42169;BME280;27838;43.858;25.974;2023-04-27T05:31:14;100992.69;;;13.89;49.83
42169;BME280;27838;43.858;25.974;2023-04-27T05:33:41;100991.00;;;13.85;49.82
42169;BME280;27838;43.858;25.974;2023-04-27T05:36:07;100992.69;;;13.90;49.50
42169;BME280;27838;43.858;25.974;2023-04-27T05:38:35;101002.31;;;13.90;49.41
42169;BME280;27838;43.858;25.974;2023-04-27T05:41:04;101006.69;;;13.88;50.10
42169;BME280;27838;43.858;25.974;2023-04-27T05:43:30;101007.56;;;13.87;50.27
42169;BME280;27838;43.858;25.974;2023-04-27T05:45:59;101000.66;;;13.78;48.90
42169;BME280;27838;43.858;25.974;2023-04-27T05:48:25;101002.41;;;13.81;48.80
42169;BME280;27838;43.858;25.974;2023-04-27T05:51:02;101000.63;;;13.83;49.06
42169;BME280;27838;43.858;25.974;2023-04-27T05:53:29;101007.63;;;13.81;49.60
42169;BME280;27838;43.858;25.974;2023-04-27T05:55:56;101009.34;;;13.85;49.73
42169;BME280;27838;43.858;25.974;2023-04-27T05:58:23;101007.56;;;13.88;49.11
42169;BME280;27838;43.858;25.974;2023-04-27T06:00:50;101004.94;;;13.88;48.14
42169;BME280;27838;43.858;25.974;2023-04-27T06:03:17;101004.09;;;13.85;48.25
42169;BME280;27838;43.858;25.974;2023-04-27T06:05:43;101012.78;;;13.90;48.92
42169;BME280;27838;43.858;25.974;2023-04-27T06:08:10;101009.25;;;13.92;48.64
42169;BME280;27838;43.858;25.974;2023-04-27T06:10:38;101016.22;;;13.95;48.68
42169;BME280;27838;43.858;25.974;2023-04-27T06:13:04;101003.16;;;13.90;48.39
42169;BME280;27838;43.858;25.974;2023-04-27T06:15:31;101017.09;;;13.94;48.49
42169;BME280;27838;43.858;25.974;2023-04-27T06:17:57;101005.81;;;13.87;47.81
42169;BME280;27838;43.858;25.974;2023-04-27T06:20:24;101013.72;;;13.86;48.32
42169;BME280;27838;43.858;25.974;2023-04-27T06:22:50;101006.75;;;13.78;49.32
42169;BME280;27838;43.858;25.974;2023-04-27T06:25:17;101016.34;;;13.83;49.82
42169;BME280;27838;43.858;25.974;2023-04-27T06:27:43;101021.59;;;13.83;49.56
42169;BME280;27838;43.858;25.974;2023-04-27T06:30:11;101017.22;;;13.82;50.19
42169;BME280;27838;43.858;25.974;2023-04-27T06:32:37;101013.75;;;13.76;50.45
42169;BME280;27838;43.858;25.974;2023-04-27T06:35:04;101017.22;;;13.83;50.44
42169;BME280;27838;43.858;25.974;2023-04-27T06:37:31;101012.91;;;13.77;51.29
42169;BME280;27838;43.858;25.974;2023-04-27T06:39:57;101022.47;;;13.78;50.34
42169;BME280;27838;43.858;25.974;2023-04-27T06:42:24;101023.34;;;13.81;50.57
42169;BME280;27838;43.858;25.974;2023-04-27T06:44:54;101019.84;;;13.82;51.07
42169;BME280;27838;43.858;25.974;2023-04-27T06:47:21;101018.13;;;13.77;50.59
42169;BME280;27838;43.858;25.974;2023-04-27T06:49:48;101027.69;;;13.82;51.21
42169;BME280;27838;43.858;25.974;2023-04-27T06:52:15;101024.22;;;13.83;50.16
42169;BME280;27838;43.858;25.974;2023-04-27T06:54:41;101029.44;;;13.84;49.41
42169;BME280;27838;43.858;25.974;2023-04-27T06:57:08;101027.66;;;13.88;49.37
42169;BME280;27838;43.858;25.974;2023-04-27T06:59:35;101034.63;;;13.87;50.35
42169;BME280;27838;43.858;25.974;2023-04-27T07:02:01;101035.53;;;13.88;50.47
42169;BME280;27838;43.858;25.974;2023-04-27T07:04:28;101037.22;;;13.92;50.24
42169;BME280;27838;43.858;25.974;2023-04-27T07:06:55;101032.84;;;13.92;49.98
42169;BME280;27838;43.858;25.974;2023-04-27T07:09:21;101036.28;;;13.96;48.67
42169;BME280;27838;43.858;25.974;2023-04-27T07:11:48;101041.53;;;13.96;48.88
42169;BME280;27838;43.858;25.974;2023-04-27T07:14:14;101033.75;;;13.90;48.91
42169;BME280;27838;43.858;25.974;2023-04-27T07:16:41;101032.00;;;13.90;49.32
42169;BME280;27838;43.858;25.974;2023-04-27T07:19:08;101040.75;;;13.91;50.13
42169;BME280;27838;43.858;25.974;2023-04-27T07:21:35;101039.00;;;13.90;49.63
42169;BME280;27838;43.858;25.974;2023-04-27T07:24:01;101034.53;;;14.00;49.05
42169;BME280;27838;43.858;25.974;2023-04-27T07:26:28;101033.66;;;13.99;48.76
42169;BME280;27838;43.858;25.974;2023-04-27T07:28:56;101040.56;;;14.06;49.30
42169;BME280;27838;43.858;25.974;2023-04-27T07:31:23;101051.00;;;14.15;49.83
42169;BME280;27838;43.858;25.974;2023-04-27T07:33:49;101046.66;;;14.11;50.13
42169;BME280;27838;43.858;25.974;2023-04-27T07:36:17;101050.94;;;14.20;49.48
42169;BME280;27838;43.858;25.974;2023-04-27T07:38:43;101051.75;;;14.24;48.78
42169;BME280;27838;43.858;25.974;2023-04-27T07:41:10;101054.38;;;14.24;48.71
42169;BME280;27838;43.858;25.974;2023-04-27T07:43:38;101054.38;;;14.25;47.16
42169;BME280;27838;43.858;25.974;2023-04-27T07:46:06;101043.09;;;14.17;47.34
42169;BME280;27838;43.858;25.974;2023-04-27T07:48:33;101051.00;;;14.15;47.26
42169;BME280;27838;43.858;25.974;2023-04-27T07:51:00;101045.75;;;14.15;47.08
42169;BME280;27838;43.858;25.974;2023-04-27T07:53:27;101060.56;;;14.18;48.26
42169;BME280;27838;43.858;25.974;2023-04-27T07:55:53;101061.47;;;14.15;47.65
42169;BME280;27838;43.858;25.974;2023-04-27T07:58:20;101063.22;;;14.13;47.14
42169;BME280;27838;43.858;25.974;2023-04-27T08:00:46;101058.84;;;14.15;47.05
42169;BME280;27838;43.858;25.974;2023-04-27T08:03:13;101068.41;;;14.23;47.72
42169;BME280;27838;43.858;25.974;2023-04-27T08:05:39;101065.78;;;14.23;47.96
42169;BME280;27838;43.858;25.974;2023-04-27T08:08:06;101070.19;;;14.21;48.04
42169;BME280;27838;43.858;25.974;2023-04-27T08:10:32;101058.81;;;14.17;47.30
42169;BME280;27838;43.858;25.974;2023-04-27T08:12:59;101064.03;;;14.22;46.41
42169;BME280;27838;43.858;25.974;2023-04-27T08:15:28;101063.06;;;14.30;46.00
42169;BME280;27838;43.858;25.974;2023-04-27T08:17:55;101064.81;;;14.33;46.21
42169;BME280;27838;43.858;25.974;2023-04-27T08:20:21;101057.75;;;14.38;45.83
42169;BME280;27838;43.858;25.974;2023-04-27T08:22:49;101063.84;;;14.40;46.11
42169;BME280;27838;43.858;25.974;2023-04-27T08:25:16;101066.47;;;14.40;45.92
42169;BME280;27838;43.858;25.974;2023-04-27T08:27:42;101064.72;;;14.41;45.82
42169;BME280;27838;43.858;25.974;2023-04-27T08:30:10;101060.31;;;14.41;44.85
42169;BME280;27838;43.858;25.974;2023-04-27T08:32:36;101062.00;;;14.50;44.99
42169;BME280;27838;43.858;25.974;2023-04-27T08:35:03;101061.16;;;14.45;45.44
42169;BME280;27838;43.858;25.974;2023-04-27T08:37:29;101067.28;;;14.47;45.06
42169;BME280;27838;43.858;25.974;2023-04-27T08:39:56;101066.38;;;14.48;44.89
42169;BME280;27838;43.858;25.974;2023-04-27T08:42:23;101056.84;;;14.41;44.80
42169;BME280;27838;43.858;25.974;2023-04-27T08:44:50;101054.22;;;14.42;45.71
42169;BME280;27838;43.858;25.974;2023-04-27T08:47:17;101065.44;;;14.53;45.24
42169;BME280;27838;43.858;25.974;2023-04-27T08:49:43;101058.44;;;14.56;45.48
42169;BME280;27838;43.858;25.974;2023-04-27T08:52:13;101061.91;;;14.61;44.40
42169;BME280;27838;43.858;25.974;2023-04-27T08:54:40;101046.22;;;14.53;45.30
42169;BME280;27838;43.858;25.974;2023-04-27T08:57:11;101062.78;;;14.61;44.78
42169;BME280;27838;43.858;25.974;2023-04-27T08:59:39;101059.25;;;14.64;44.56
42169;BME280;27838;43.858;25.974;2023-04-27T09:02:06;101052.22;;;14.66;44.89
42169;BME280;27838;43.858;25.974;2023-04-27T09:04:38;101058.22;;;14.79;44.77
42169;BME280;27838;43.858;25.974;2023-04-27T09:07:16;101047.69;;;14.80;44.95
42169;BME280;27838;43.858;25.974;2023-04-27T09:09:43;101061.47;;;14.99;45.05
42169;BME280;27838;43.858;25.974;2023-04-27T09:14:41;101049.88;;;15.14;44.55
42169;BME280;27838;43.858;25.974;2023-04-27T09:17:08;101045.44;;;15.18;44.02
42169;BME280;27838;43.858;25.974;2023-04-27T09:19:35;101046.31;;;15.18;44.47
42169;BME280;27838;43.858;25.974;2023-04-27T09:22:09;101047.22;;;15.17;43.84
42169;BME280;27838;43.858;25.974;2023-04-27T09:24:49;101047.25;;;15.14;44.67
42169;BME280;27838;43.858;25.974;2023-04-27T09:27:20;101044.56;;;15.20;44.01
42169;BME280;27838;43.858;25.974;2023-04-27T09:29:47;101023.59;;;15.17;44.36
42169;BME280;27838;43.858;25.974;2023-04-27T09:32:18;101029.69;;;15.19;44.46
42169;BME280;27838;43.858;25.974;2023-04-27T09:34:45;101032.25;;;15.22;45.81
42169;BME280;27838;43.858;25.974;2023-04-27T09:37:13;101025.28;;;15.20;46.06
42169;BME280;27838;43.858;25.974;2023-04-27T09:39:40;101031.38;;;15.22;45.77
42169;BME280;27838;43.858;25.974;2023-04-27T09:42:07;101030.50;;;15.23;46.77
42169;BME280;27838;43.858;25.974;2023-04-27T09:44:33;101030.47;;;15.26;45.52
42169;BME280;27838;43.858;25.974;2023-04-27T09:47:00;101026.06;;;15.28;45.73
42169;BME280;27838;43.858;25.974;2023-04-27T09:49:27;101026.72;;;15.41;46.36
42169;BME280;27838;43.858;25.974;2023-04-27T09:51:55;101024.81;;;15.52;46.30
42169;BME280;27838;43.858;25.974;2023-04-27T09:54:28;101022.09;;;15.57;46.78
42169;BME280;27838;43.858;25.974;2023-04-27T09:57:04;101015.91;;;15.62;46.45
42169;BME280;27838;43.858;25.974;2023-04-27T09:59:54;101024.63;;;15.64;45.96
42169;BME280;27838;43.858;25.974;2023-04-27T10:02:26;101026.50;;;15.56;43.86
42169;BME280;27838;43.858;25.974;2023-04-27T10:07:44;101023.09;;;15.48;45.37
42169;BME280;27838;43.858;25.974;2023-04-27T10:10:17;101014.47;;;15.43;45.38
42169;BME280;27838;43.858;25.974;2023-04-27T10:12:55;101012.72;;;15.42;45.35
42169;BME280;27838;43.858;25.974;2023-04-27T10:15:26;101000.53;;;15.38;46.03
42169;BME280;27838;43.858;25.974;2023-04-27T10:17:54;101018.69;;;15.52;45.53
42169;BME280;27838;43.858;25.974;2023-04-27T10:20:49;101017.69;;;15.60;45.79
42169;BME280;27838;43.858;25.974;2023-04-27T10:23:25;101023.69;;;15.65;45.65
42169;BME280;27838;43.858;25.974;2023-04-27T10:25:55;101027.94;;;15.76;45.61
42169;BME280;27838;43.858;25.974;2023-04-27T10:28:22;101025.38;;;15.73;44.01
42169;BME280;27838;43.858;25.974;2023-04-27T10:30:48;101015.72;;;15.73;44.25
42169;BME280;27838;43.858;25.974;2023-04-27T10:33:18;101015.69;;;15.78;44.19
42169;BME280;27838;43.858;25.974;2023-04-27T10:35:54;101018.34;;;15.76;44.21
42169;BME280;27838;43.858;25.974;2023-04-27T10:38:28;101020.97;;;15.75;44.37
42169;BME280;27838;43.858;25.974;2023-04-27T10:41:00;101023.44;;;15.85;44.28
42169;BME280;27838;43.858;25.974;2023-04-27T10:43:29;101012.75;;;15.93;43.35
42169;BME280;27838;43.858;25.974;2023-04-27T10:46:12;101022.22;;;16.03;44.06
42169;BME280;27838;43.858;25.974;2023-04-27T10:48:42;101026.44;;;16.12;43.98
42169;BME280;27838;43.858;25.974;2023-04-27T10:51:14;101025.31;;;16.27;42.01
42169;BME280;27838;43.858;25.974;2023-04-27T10:53:40;101027.72;;;16.39;43.42
42169;BME280;27838;43.858;25.974;2023-04-27T10:56:07;101014.50;;;16.42;42.66
42169;BME280;27838;43.858;25.974;2023-04-27T10:58:34;101025.03;;;16.42;41.43
42169;BME280;27838;43.858;25.974;2023-04-27T11:01:02;101019.38;;;16.61;41.37
42169;BME280;27838;43.858;25.974;2023-04-27T11:03:29;101025.13;;;16.80;41.63
42169;BME280;27838;43.858;25.974;2023-04-27T11:06:01;101004.94;;;16.80;41.91
42169;BME280;27838;43.858;25.974;2023-04-27T11:08:28;101012.50;;;16.97;42.40
42169;BME280;27838;43.858;25.974;2023-04-27T11:10:56;101002.59;;;17.09;41.95
42169;BME280;27838;43.858;25.974;2023-04-27T11:13:25;101015.50;;;17.21;40.28
42169;BME280;27838;43.858;25.974;2023-04-27T11:15:57;101011.56;;;17.39;40.57
42169;BME280;27838;43.858;25.974;2023-04-27T11:18:36;101014.72;;;17.53;39.88
42169;BME280;27838;43.858;25.974;2023-04-27T11:21:28;101004.00;;;17.61;39.77
42169;BME280;27838;43.858;25.974;2023-04-27T11:23:54;101002.78;;;17.74;39.83
42169;BME280;27838;43.858;25.974;2023-04-27T11:26:22;101008.88;;;17.77;40.61
42169;BME280;27838;43.858;25.974;2023-04-27T11:29:04;101008.16;;;17.70;40.36
42169;BME280;27838;43.858;25.974;2023-04-27T11:34:05;101000.50;;;17.61;40.48
42169;BME280;27838;43.858;25.974;2023-04-27T11:36:32;101004.91;;;17.60;40.13
42169;BME280;27838;43.858;25.974;2023-04-27T11:38:58;101003.31;;;17.54;39.91
42169;BME280;27838;43.858;25.974;2023-04-27T11:41:33;101001.56;;;17.53;39.30
42169;BME280;27838;43.858;25.974;2023-04-27T11:44:07;101007.31;;;17.69;39.40
42169;BME280;27838;43.858;25.974;2023-04-27T11:46:36;100989.88;;;17.64;40.24
42169;BME280;27838;43.858;25.974;2023-04-27T11:49:06;100989.56;;;17.76;39.20
42169;BME280;27838;43.858;25.974;2023-04-27T11:51:34;100993.69;;;17.88;38.97
42169;BME280;27838;43.858;25.974;2023-04-27T11:54:06;100981.41;;;17.87;39.01
42169;BME280;27838;43.858;25.974;2023-04-27T11:56:40;100970.00;;;17.86;40.49
42169;BME280;27838;43.858;25.974;2023-04-27T11:59:36;100984.78;;;17.92;38.81
42169;BME280;27838;43.858;25.974;2023-04-27T12:02:03;100960.66;;;17.73;39.65
42169;BME280;27838;43.858;25.974;2023-04-27T12:04:30;100978.13;;;17.77;40.38
42169;BME280;27838;43.858;25.974;2023-04-27T12:06:56;100939.72;;;17.67;39.81
42169;BME280;27838;43.858;25.974;2023-04-27T12:09:23;100980.22;;;17.99;40.36
42169;BME280;27838;43.858;25.974;2023-04-27T12:11:49;100972.06;;;18.08;40.24
42169;BME280;27838;43.858;25.974;2023-04-27T12:14:16;100973.06;;;18.04;39.50
42169;BME280;27838;43.858;25.974;2023-04-27T12:16:44;100970.50;;;18.01;39.83
42169;BME280;27838;43.858;25.974;2023-04-27T12:19:11;100962.63;;;17.99;40.28
42169;BME280;27838;43.858;25.974;2023-04-27T12:21:38;100978.41;;;18.01;40.04
42169;BME280;27838;43.858;25.974;2023-04-27T12:24:05;100978.66;;;17.91;39.75
42169;BME280;27838;43.858;25.974;2023-04-27T12:26:31;100974.28;;;17.90;39.23
42169;BME280;27838;43.858;25.974;2023-04-27T12:28:58;100974.13;;;17.97;39.79
42169;BME280;27838;43.858;25.974;2023-04-27T12:31:24;100966.03;;;18.03;39.42
42169;BME280;27838;43.858;25.974;2023-04-27T12:33:51;100976.63;;;18.01;39.66
42169;BME280;27838;43.858;25.974;2023-04-27T12:36:21;100960.41;;;17.82;39.40
42169;BME280;27838;43.858;25.974;2023-04-27T12:38:47;100969.56;;;17.69;40.30
42169;BME280;27838;43.858;25.974;2023-04-27T12:41:14;100966.19;;;17.62;40.25
42169;BME280;27838;43.858;25.974;2023-04-27T12:43:40;100956.44;;;17.66;39.63
42169;BME280;27838;43.858;25.974;2023-04-27T12:46:07;100960.41;;;17.82;39.46
42169;BME280;27838;43.858;25.974;2023-04-27T12:48:34;100954.22;;;17.83;39.55
42169;BME280;27838;43.858;25.974;2023-04-27T12:51:00;100949.03;;;17.80;40.67